Time;durP1;ratioP1;P1;durP2;ratioP2;P2;SDS_P1;SDS_P2;PMS_P1;PMS_P2;Temp;Humidity;BMP_temperature;BMP_pressure;BME280_temperature;BME280_humidity;BME280_pressure;Samples;Min_cycle;Max_cycle;Signal;HPM_P1;HPM_P2
2023/01/12 00:01:05;;;;;;;16.70;2.92;;;7.80;99.90;;;;;;5069225;28;20036;-86
2023/01/12 00:03:31;;;;;;;15.57;3.33;;;7.80;99.90;;;;;;5067492;28;20394;-86
2023/01/12 00:05:59;;;;;;;18.67;3.30;;;7.80;99.90;;;;;;5048770;28;20063;-86
2023/01/12 00:08:25;;;;;;;16.05;3.05;;;7.80;99.90;;;;;;5042593;28;20042;-85
2023/01/12 00:10:55;;;;;;;18.75;3.70;;;7.90;99.90;;;;;;5029771;28;20040;-85
2023/01/12 00:13:21;;;;;;;18.17;3.67;;;7.80;99.90;;;;;;5047373;28;20452;-86
2023/01/12 00:18:31;;;;;;;18.20;3.58;;;7.80;99.90;;;;;;5065792;28;20083;-87
2023/01/12 00:20:57;;;;;;;19.65;3.85;;;7.80;99.90;;;;;;5064657;28;20676;-87
2023/01/12 00:23:24;;;;;;;18.90;3.55;;;7.80;99.90;;;;;;5064122;28;20355;-85
2023/01/12 00:25:51;;;;;;;16.55;3.10;;;7.80;99.90;;;;;;5060471;28;20041;-85
2023/01/12 00:28:17;;;;;;;15.00;3.22;;;7.90;99.90;;;;;;5066621;28;20272;-86
2023/01/12 00:30:43;;;;;;;16.02;3.35;;;8.00;99.90;;;;;;5045341;28;20166;-86
2023/01/12 00:33:09;;;;;;;20.20;3.55;;;7.80;99.90;;;;;;5059162;28;20049;-87
2023/01/12 00:35:35;;;;;;;18.20;3.55;;;7.80;99.90;;;;;;5049781;28;20113;-87
2023/01/12 00:38:02;;;;;;;20.15;3.97;;;7.80;99.90;;;;;;5047406;28;20047;-87
2023/01/12 00:40:27;;;;;;;21.65;4.03;;;7.80;99.90;;;;;;5063792;28;20044;-86
2023/01/12 00:45:37;;;;;;;20.25;3.85;;;8.00;99.90;;;;;;5078705;28;20052;-85
2023/01/12 00:48:03;;;;;;;25.25;4.00;;;7.80;99.90;;;;;;5062725;28;20182;-85
2023/01/12 00:50:29;;;;;;;19.40;3.92;;;7.80;99.90;;;;;;5066916;28;20102;-86
2023/01/12 00:52:54;;;;;;;18.60;3.42;;;7.80;99.90;;;;;;5066310;28;20109;-85
2023/01/12 00:55:20;;;;;;;24.15;4.88;;;7.80;99.90;;;;;;5063380;28;20464;-85
2023/01/12 00:57:46;;;;;;;17.67;3.83;;;7.80;99.90;;;;;;5044330;28;20029;-86
2023/01/12 01:00:13;;;;;;;21.27;3.50;;;7.80;99.90;;;;;;5034538;28;20052;-85
2023/01/12 01:02:38;;;;;;;18.58;3.67;;;7.80;99.90;;;;;;5060611;28;20098;-85
2023/01/12 01:05:04;;;;;;;19.42;4.47;;;7.80;99.90;;;;;;5055972;28;20056;-86
2023/01/12 01:07:30;;;;;;;22.75;4.28;;;7.80;99.90;;;;;;5062976;28;20113;-85
2023/01/12 01:09:56;;;;;;;20.23;3.85;;;7.80;99.90;;;;;;5039596;28;20117;-85
2023/01/12 01:12:22;;;;;;;15.73;3.17;;;7.80;99.90;;;;;;5071922;28;20386;-84
2023/01/12 01:14:47;;;;;;;18.52;3.90;;;7.80;99.90;;;;;;5078329;28;20067;-86
2023/01/12 01:17:14;;;;;;;17.60;3.30;;;7.80;99.90;;;;;;5034911;28;20032;-85
2023/01/12 01:19:39;;;;;;;16.30;3.50;;;7.80;99.90;;;;;;5063041;28;20052;-86
2023/01/12 01:22:05;;;;;;;18.38;3.40;;;7.90;99.90;;;;;;5073219;28;20028;-86
2023/01/12 01:24:31;;;;;;;17.98;4.03;;;7.80;99.90;;;;;;5033013;28;20444;-86
2023/01/12 01:26:57;;;;;;;17.55;3.30;;;7.80;99.90;;;;;;5074045;28;20040;-86
2023/01/12 01:29:22;;;;;;;16.67;3.10;;;7.90;99.90;;;;;;5070613;28;20286;-86
2023/01/12 01:31:48;;;;;;;17.98;3.78;;;7.90;99.90;;;;;;5045269;28;20036;-86
2023/01/12 01:34:14;;;;;;;17.08;3.45;;;7.90;99.90;;;;;;5060934;28;20043;-86
2023/01/12 01:36:40;;;;;;;16.70;3.47;;;7.90;99.90;;;;;;5063808;28;20037;-86
2023/01/12 01:39:05;;;;;;;18.10;3.45;;;7.90;99.90;;;;;;5040803;28;20039;-87
2023/01/12 01:41:32;;;;;;;17.25;3.20;;;7.90;99.90;;;;;;5062318;28;20044;-85
2023/01/12 01:44:03;;;;;;;17.75;3.15;;;7.90;99.90;;;;;;5048738;28;20492;-85
2023/01/12 01:46:52;;;;;;;23.05;3.88;;;7.90;99.90;;;;;;5063570;28;20050;-86
2023/01/12 01:49:27;;;;;;;15.75;3.00;;;7.80;99.90;;;;;;5059504;28;20044;-85
2023/01/12 01:51:57;;;;;;;20.77;3.75;;;7.80;99.90;;;;;;5072821;28;20393;-86
2023/01/12 01:54:23;;;;;;;15.50;3.70;;;7.80;99.90;;;;;;5046994;28;20052;-85
2023/01/12 01:56:53;;;;;;;21.05;3.78;;;7.80;99.90;;;;;;5062766;28;20090;-85
2023/01/12 01:59:23;;;;;;;21.58;3.70;;;7.90;99.90;;;;;;5040966;28;20115;-86
2023/01/12 02:01:50;;;;;;;21.60;4.53;;;7.80;99.90;;;;;;5063757;28;20032;-85
2023/01/12 02:04:16;;;;;;;20.90;3.95;;;7.80;99.90;;;;;;5062392;28;20044;-85
2023/01/12 02:06:42;;;;;;;18.83;3.58;;;7.80;99.90;;;;;;5070782;28;20070;-86
2023/01/12 02:09:13;;;;;;;15.75;3.38;;;7.80;99.90;;;;;;5071825;28;20066;-86
2023/01/12 02:17:27;;;;;;;19.27;3.33;;;7.80;99.90;;;;;;5056394;28;20045;-86
2023/01/12 02:20:18;;;;;;;18.65;3.47;;;7.90;99.90;;;;;;5067848;28;20120;-85
2023/01/12 02:22:54;;;;;;;21.45;3.72;;;7.90;99.90;;;;;;5061126;28;20094;-85
2023/01/12 02:25:42;;;;;;;17.75;3.63;;;7.90;99.90;;;;;;5059629;28;20049;-86
2023/01/12 02:28:41;;;;;;;21.98;3.83;;;8.00;99.90;;;;;;5069259;28;20052;-85
2023/01/12 02:31:22;;;;;;;18.95;4.10;;;8.00;99.90;;;;;;5063794;28;20473;-86
2023/01/12 02:33:48;;;;;;;27.30;3.90;;;8.00;99.90;;;;;;5062379;28;20401;-86
2023/01/12 02:36:28;;;;;;;20.20;3.85;;;8.00;99.90;;;;;;5061970;28;20036;-86
2023/01/12 02:39:30;;;;;;;21.08;4.03;;;8.10;99.90;;;;;;5047627;28;20102;-86
2023/01/12 02:44:56;;;;;;;21.58;4.35;;;8.10;99.90;;;;;;5063214;28;20040;-86
2023/01/12 02:47:34;;;;;;;18.50;3.60;;;8.10;99.90;;;;;;5074293;28;20455;-85
2023/01/12 02:50:02;;;;;;;20.33;3.78;;;8.10;99.90;;;;;;5065617;28;20040;-86
2023/01/12 02:52:32;;;;;;;19.75;4.65;;;8.10;99.90;;;;;;5060914;28;20041;-84
2023/01/12 02:55:01;;;;;;;21.67;4.57;;;8.10;99.90;;;;;;5068266;28;20485;-85
2023/01/12 02:57:28;;;;;;;21.30;4.60;;;8.10;99.90;;;;;;5067940;28;20040;-85
2023/01/12 02:59:55;;;;;;;23.83;4.65;;;8.10;99.90;;;;;;5062380;28;20028;-85
2023/01/12 03:02:23;;;;;;;20.48;4.38;;;8.10;99.90;;;;;;5080474;28;20040;-86
2023/01/12 03:04:49;;;;;;;22.70;4.75;;;8.10;99.90;;;;;;5048283;28;20127;-85
2023/01/12 03:07:34;;;;;;;18.70;3.75;;;8.10;99.90;;;;;;5045137;28;20501;-85
2023/01/12 03:10:17;;;;;;;19.98;3.90;;;8.10;99.90;;;;;;5070251;28;20052;-85
2023/01/12 03:12:44;;;;;;;18.10;3.67;;;8.10;99.90;;;;;;5045050;28;20032;-85
2023/01/12 03:15:12;;;;;;;20.52;3.70;;;8.10;99.90;;;;;;5078389;28;20029;-86
2023/01/12 03:17:59;;;;;;;18.40;4.18;;;8.10;99.90;;;;;;5050568;28;20037;-85
2023/01/12 03:20:30;;;;;;;15.63;3.92;;;8.10;99.90;;;;;;5069165;28;20028;-85
2023/01/12 03:23:11;;;;;;;16.35;3.40;;;8.10;99.90;;;;;;5062686;28;20146;-85
2023/01/12 03:25:41;;;;;;;25.27;4.78;;;8.10;99.90;;;;;;5061470;28;20047;-85
2023/01/12 03:28:09;;;;;;;21.83;4.18;;;8.20;99.90;;;;;;5064605;28;20132;-85
2023/01/12 03:30:41;;;;;;;20.83;4.18;;;8.20;99.90;;;;;;5064882;28;20032;-86
2023/01/12 03:33:07;;;;;;;20.42;4.70;;;8.20;99.90;;;;;;5065820;28;20051;-85
2023/01/12 03:35:39;;;;;;;23.23;4.30;;;8.20;99.90;;;;;;5062278;28;20417;-84
2023/01/12 03:38:31;;;;;;;19.20;4.00;;;8.20;99.90;;;;;;5062904;28;20168;-85
2023/01/12 03:41:17;;;;;;;22.08;4.18;;;8.20;99.90;;;;;;5029999;28;20294;-85
2023/01/12 03:43:49;;;;;;;18.73;4.15;;;8.20;99.90;;;;;;5065156;28;20032;-86
2023/01/12 03:46:26;;;;;;;21.58;4.05;;;8.30;99.90;;;;;;5062380;28;20067;-85
2023/01/12 03:49:03;;;;;;;20.25;4.32;;;8.30;99.90;;;;;;5047723;28;20032;-85
2023/01/12 03:51:36;;;;;;;18.23;4.22;;;8.20;99.90;;;;;;5052975;28;20036;-85
2023/01/12 03:54:05;;;;;;;23.38;4.63;;;8.30;99.90;;;;;;5062909;28;20527;-85
2023/01/12 03:56:34;;;;;;;16.08;4.05;;;8.30;99.90;;;;;;5059775;28;20036;-84
2023/01/12 03:59:00;;;;;;;20.42;4.35;;;8.30;99.90;;;;;;5040679;28;20106;-85
2023/01/12 04:01:26;;;;;;;18.80;3.72;;;8.30;99.90;;;;;;5062029;28;20203;-85
2023/01/12 04:03:52;;;;;;;13.85;3.25;;;8.30;99.90;;;;;;5050507;28;20238;-86
2023/01/12 04:06:17;;;;;;;17.45;3.55;;;8.30;99.90;;;;;;5062036;28;20120;-86
2023/01/12 04:08:43;;;;;;;15.55;4.03;;;8.30;99.90;;;;;;5058150;28;20041;-86
2023/01/12 04:13:53;;;;;;;20.67;3.65;;;8.40;99.90;;;;;;5077004;28;20513;-86
2023/01/12 04:16:19;;;;;;;17.15;3.47;;;8.40;99.90;;;;;;5064670;28;20032;-86
2023/01/12 04:18:44;;;;;;;20.33;3.72;;;8.40;99.90;;;;;;5061205;28;20029;-85
2023/01/12 04:22:41;;;;;;;18.67;3.47;;;8.40;99.90;;;;;;5062852;28;20051;-86
2023/01/12 04:23:56;;;;;;;17.58;3.45;;;8.40;99.90;;;;;;5062457;28;20051;-85
2023/01/12 04:26:22;;;;;;;15.38;3.33;;;8.40;99.90;;;;;;5066086;28;20041;-86
2023/01/12 04:28:47;;;;;;;15.15;3.47;;;8.40;99.90;;;;;;5067072;28;20068;-84
2023/01/12 04:31:13;;;;;;;14.50;3.45;;;8.40;99.90;;;;;;5038267;28;20040;-85
2023/01/12 04:33:39;;;;;;;19.92;3.40;;;8.40;99.90;;;;;;5041309;28;20490;-86
2023/01/12 04:36:05;;;;;;;14.55;3.10;;;8.40;99.90;;;;;;5026728;28;20044;-85
2023/01/12 04:38:30;;;;;;;15.93;3.00;;;8.40;99.90;;;;;;5029253;28;21148;-86
2023/01/12 04:40:56;;;;;;;14.32;2.90;;;8.40;99.90;;;;;;5044809;28;20076;-85
2023/01/12 04:43:22;;;;;;;15.20;3.03;;;8.40;99.90;;;;;;5030572;28;20048;-86
2023/01/12 04:45:47;;;;;;;13.25;2.70;;;8.40;99.90;;;;;;5032295;28;20095;-86
2023/01/12 04:48:15;;;;;;;14.95;2.90;;;8.40;99.90;;;;;;5073845;28;20077;-86
2023/01/12 04:50:43;;;;;;;12.63;3.30;;;8.40;99.90;;;;;;5066883;28;21719;-87
2023/01/12 04:53:11;;;;;;;11.95;2.95;;;8.40;99.90;;;;;;5046823;28;20485;-86
2023/01/12 04:55:38;;;;;;;15.25;3.20;;;8.40;99.90;;;;;;5064902;28;20048;-86
2023/01/12 04:58:04;;;;;;;13.25;2.45;;;8.40;99.90;;;;;;5064108;28;20073;-87
2023/01/12 05:00:31;;;;;;;13.45;2.42;;;8.40;99.90;;;;;;5047792;28;20033;-86
2023/01/12 05:02:59;;;;;;;10.75;2.50;;;8.40;99.90;;;;;;5034091;28;20051;-86
2023/01/12 05:05:25;;;;;;;12.48;2.30;;;8.40;99.90;;;;;;5062350;28;20051;-87
2023/01/12 05:10:36;;;;;;;9.57;2.22;;;8.30;99.90;;;;;;5070051;28;20153;-85
2023/01/12 05:13:02;;;;;;;10.48;2.03;;;8.40;99.90;;;;;;5030346;28;20044;-85
2023/01/12 05:15:27;;;;;;;11.73;2.33;;;8.30;99.90;;;;;;5071227;28;20402;-85
2023/01/12 05:17:53;;;;;;;10.40;2.75;;;8.40;99.90;;;;;;5051834;28;20048;-86
2023/01/12 05:20:20;;;;;;;10.15;2.10;;;8.40;99.90;;;;;;5072291;28;20474;-86
2023/01/12 05:22:47;;;;;;;9.45;2.03;;;8.30;99.90;;;;;;5077019;28;20044;-86
2023/01/12 05:25:13;;;;;;;9.57;1.90;;;8.30;99.90;;;;;;5043696;28;20405;-86
2023/01/12 05:27:39;;;;;;;7.45;1.90;;;8.30;99.90;;;;;;5063760;28;20040;-87
2023/01/12 05:30:06;;;;;;;6.18;1.70;;;8.30;99.90;;;;;;5046178;28;20170;-86
2023/01/12 05:32:37;;;;;;;10.25;1.80;;;8.30;99.90;;;;;;5044663;28;20079;-86
2023/01/12 05:35:06;;;;;;;7.53;1.67;;;8.30;99.90;;;;;;5062396;28;20443;-86
2023/01/12 05:37:32;;;;;;;6.30;1.83;;;8.30;99.90;;;;;;5059075;28;20036;-87
2023/01/12 05:39:57;;;;;;;6.95;1.90;;;8.30;99.90;;;;;;5076974;28;20097;-86
2023/01/12 05:45:09;;;;;;;6.93;1.85;;;8.30;99.90;;;;;;5048841;28;20052;-87
2023/01/12 05:47:35;;;;;;;6.25;1.80;;;8.30;99.90;;;;;;5061038;28;20094;-84
2023/01/12 05:50:01;;;;;;;5.65;1.80;;;8.30;99.90;;;;;;5060277;28;20336;-85
2023/01/12 05:52:26;;;;;;;6.28;2.10;;;8.30;99.90;;;;;;5043494;28;20145;-83
2023/01/12 05:54:52;;;;;;;5.93;1.88;;;8.30;99.90;;;;;;5047651;28;20036;-85
2023/01/12 05:57:18;;;;;;;7.70;2.10;;;8.20;99.90;;;;;;5059387;28;20123;-85
2023/01/12 05:59:44;;;;;;;8.13;1.90;;;8.30;99.90;;;;;;5040585;28;20097;-84
2023/01/12 06:02:12;;;;;;;5.43;1.75;;;8.20;99.90;;;;;;5055155;28;20048;-88
2023/01/12 06:04:38;;;;;;;5.97;1.50;;;8.20;99.90;;;;;;5053175;28;20043;-87
2023/01/12 06:07:04;;;;;;;7.25;1.70;;;8.30;99.90;;;;;;5056168;28;20417;-87
2023/01/12 06:09:30;;;;;;;5.82;2.00;;;8.30;99.90;;;;;;5067399;28;20032;-86
2023/01/12 06:14:40;;;;;;;6.35;1.60;;;8.30;99.90;;;;;;5057464;28;20516;-87
2023/01/12 06:17:05;;;;;;;5.75;1.52;;;8.30;99.90;;;;;;5060390;28;20041;-86
2023/01/12 06:19:31;;;;;;;5.45;1.70;;;8.30;99.90;;;;;;5061775;28;20405;-87
2023/01/12 06:21:58;;;;;;;4.30;1.60;;;8.30;99.90;;;;;;5069250;28;20116;-86
2023/01/12 06:24:26;;;;;;;5.18;1.40;;;8.40;99.90;;;;;;5058930;28;20033;-86
2023/01/12 06:26:53;;;;;;;7.05;1.92;;;8.30;99.90;;;;;;5043374;28;20044;-88
2023/01/12 06:29:20;;;;;;;5.57;1.73;;;8.30;99.90;;;;;;5064411;28;20523;-87
2023/01/12 06:31:46;;;;;;;5.72;1.67;;;8.30;99.90;;;;;;5057385;28;20064;-86
2023/01/12 06:34:12;;;;;;;6.85;1.58;;;8.40;99.90;;;;;;5045960;28;20071;-87
2023/01/12 06:36:38;;;;;;;7.45;1.95;;;8.40;99.90;;;;;;5058220;28;20082;-87
2023/01/12 06:39:04;;;;;;;6.35;1.38;;;8.40;99.90;;;;;;5043591;28;20098;-87
2023/01/12 06:44:14;;;;;;;3.72;1.40;;;8.40;99.90;;;;;;5052613;28;20651;-87
2023/01/12 06:46:40;;;;;;;4.18;1.20;;;8.50;99.90;;;;;;5041712;28;20282;-86
2023/01/12 06:49:06;;;;;;;2.83;1.10;;;8.50;99.90;;;;;;5028765;28;20072;-86
2023/01/12 06:51:32;;;;;;;3.70;1.20;;;8.50;99.90;;;;;;5035775;28;20052;-86
2023/01/12 06:53:57;;;;;;;2.58;1.10;;;8.40;99.90;;;;;;5044969;28;20048;-86
2023/01/12 06:56:23;;;;;;;3.08;1.00;;;8.60;99.90;;;;;;5069091;28;20052;-86
2023/01/12 06:58:49;;;;;;;3.75;1.48;;;8.60;99.90;;;;;;5039372;28;20520;-86
2023/01/12 07:01:15;;;;;;;4.35;1.20;;;8.60;99.90;;;;;;5031456;28;20040;-85
2023/01/12 07:03:41;;;;;;;2.28;1.00;;;8.70;99.90;;;;;;5060071;28;20039;-86
2023/01/12 07:06:07;;;;;;;3.67;1.17;;;8.70;99.90;;;;;;5058137;28;20037;-86
2023/01/12 07:08:33;;;;;;;4.00;1.20;;;8.70;99.90;;;;;;5026748;28;20041;-88
2023/01/12 07:11:03;;;;;;;3.45;1.30;;;8.70;99.90;;;;;;5059820;28;20041;-87
2023/01/12 07:13:30;;;;;;;5.55;1.60;;;8.70;99.90;;;;;;5030933;28;20037;-87
2023/01/12 07:16:00;;;;;;;4.05;1.35;;;8.80;99.90;;;;;;5060164;28;20040;-87
2023/01/12 07:18:27;;;;;;;3.83;1.42;;;8.80;99.90;;;;;;5062059;28;20562;-86
2023/01/12 07:20:53;;;;;;;4.68;1.60;;;8.90;99.90;;;;;;5044394;28;20056;-86
2023/01/12 07:23:18;;;;;;;4.75;1.50;;;8.90;99.90;;;;;;5045671;28;20051;-86
2023/01/12 07:25:44;;;;;;;6.60;2.08;;;9.00;99.90;;;;;;5049454;28;20047;-86
2023/01/12 07:28:10;;;;;;;8.65;2.22;;;9.00;99.90;;;;;;5048494;28;20051;-87
2023/01/12 07:30:36;;;;;;;10.10;2.20;;;9.10;99.90;;;;;;5049400;28;20032;-87
2023/01/12 07:33:11;;;;;;;8.23;2.25;;;9.10;99.90;;;;;;5069345;28;20490;-86
2023/01/12 07:35:37;;;;;;;9.25;2.03;;;9.10;99.90;;;;;;5056814;28;20041;-87
2023/01/12 07:38:03;;;;;;;9.15;2.30;;;9.20;99.90;;;;;;5062802;28;20051;-88
2023/01/12 07:40:29;;;;;;;11.10;2.50;;;9.20;99.90;;;;;;5048428;28;20028;-86
2023/01/12 07:42:58;;;;;;;8.73;2.03;;;9.20;99.90;;;;;;5060906;28;20556;-86
2023/01/12 07:45:24;;;;;;;9.63;2.45;;;9.30;99.90;;;;;;5064393;28;20119;-87
2023/01/12 07:47:53;;;;;;;12.73;2.20;;;9.30;99.90;;;;;;5067037;28;20103;-85
2023/01/12 07:50:20;;;;;;;9.23;2.35;;;9.40;99.90;;;;;;5061354;28;20612;-87
2023/01/12 07:52:46;;;;;;;10.13;2.25;;;9.40;99.90;;;;;;5063140;28;20079;-85
2023/01/12 07:55:12;;;;;;;12.35;2.58;;;9.40;99.90;;;;;;5064180;28;20052;-87
2023/01/12 07:57:38;;;;;;;12.50;2.30;;;9.40;99.90;;;;;;5031380;28;20258;-86
2023/01/12 08:00:05;;;;;;;14.80;3.00;;;9.50;99.90;;;;;;5080185;28;20240;-87
2023/01/12 08:02:30;;;;;;;13.25;3.13;;;9.50;99.90;;;;;;5064486;28;20052;-85
2023/01/12 08:04:56;;;;;;;17.40;3.42;;;9.50;99.90;;;;;;5077471;28;20093;-87
2023/01/12 08:07:22;;;;;;;15.40;2.90;;;9.50;99.90;;;;;;5066841;28;20514;-87
2023/01/12 08:09:48;;;;;;;15.15;3.00;;;9.50;99.90;;;;;;5052018;28;20063;-86
2023/01/12 08:12:14;;;;;;;15.73;3.28;;;9.60;99.90;;;;;;5070842;28;20040;-84
2023/01/12 08:14:40;;;;;;;19.90;3.33;;;9.60;99.90;;;;;;5074681;28;20037;-86
2023/01/12 08:17:17;;;;;;;13.82;2.90;;;9.60;99.90;;;;;;5069536;28;20382;-86
2023/01/12 08:19:55;;;;;;;21.77;3.90;;;9.70;99.90;;;;;;5084300;28;20036;-86
2023/01/12 08:22:27;;;;;;;17.52;3.50;;;9.70;99.90;;;;;;5069917;28;20124;-86
2023/01/12 08:25:18;;;;;;;17.83;3.38;;;9.70;99.90;;;;;;5061388;28;20035;-86
2023/01/12 08:27:48;;;;;;;18.80;3.92;;;9.80;99.90;;;;;;5044867;28;20134;-87
2023/01/12 08:30:16;;;;;;;20.38;4.00;;;9.90;99.90;;;;;;5066831;28;20201;-87
2023/01/12 08:32:42;;;;;;;18.58;3.33;;;9.90;99.90;;;;;;5044568;28;20318;-87
2023/01/12 08:35:10;;;;;;;16.63;3.28;;;9.90;99.90;;;;;;5058758;28;20334;-87
2023/01/12 08:37:36;;;;;;;23.25;4.00;;;9.90;99.90;;;;;;5063670;28;20041;-86
2023/01/12 08:40:03;;;;;;;15.52;3.78;;;10.00;99.90;;;;;;5059523;28;20505;-86
2023/01/12 08:42:29;;;;;;;18.00;3.60;;;10.00;99.90;;;;;;5046415;28;20045;-86
2023/01/12 08:44:55;;;;;;;20.42;3.97;;;10.00;99.90;;;;;;5028118;28;20445;-86
2023/01/12 08:47:26;;;;;;;13.48;3.33;;;10.00;99.90;;;;;;5064191;28;20024;-87
2023/01/12 08:49:52;;;;;;;19.58;4.10;;;10.00;99.90;;;;;;5045362;28;20047;-86
2023/01/12 08:52:17;;;;;;;24.30;4.03;;;10.10;99.90;;;;;;5044497;28;20044;-86
2023/01/12 08:54:43;;;;;;;20.77;4.00;;;10.10;99.90;;;;;;5024460;28;20043;-86
2023/01/12 08:57:09;;;;;;;17.85;3.40;;;10.10;99.90;;;;;;5043412;28;20068;-88
2023/01/12 08:59:35;;;;;;;18.60;3.80;;;10.10;99.90;;;;;;5061009;28;20047;-87
2023/01/12 09:02:01;;;;;;;22.35;4.00;;;10.20;99.90;;;;;;5044799;28;20048;-87
2023/01/12 09:04:27;;;;;;;21.90;4.38;;;10.20;99.90;;;;;;5042920;28;20654;-86
2023/01/12 09:06:53;;;;;;;17.52;3.13;;;10.20;99.90;;;;;;5064051;28;20038;-87
2023/01/12 09:09:20;;;;;;;19.48;3.65;;;10.20;99.90;;;;;;5069317;28;20413;-87
2023/01/12 09:11:47;;;;;;;17.23;3.40;;;10.20;99.90;;;;;;5057185;28;20041;-87
2023/01/12 09:14:14;;;;;;;15.10;3.35;;;10.20;99.90;;;;;;5059448;28;20036;-88
2023/01/12 09:16:40;;;;;;;18.15;3.58;;;10.20;99.90;;;;;;5059228;28;20468;-87
2023/01/12 09:19:06;;;;;;;21.70;3.80;;;10.30;99.90;;;;;;5061117;28;20119;-88
2023/01/12 09:21:34;;;;;;;16.20;3.60;;;10.20;99.90;;;;;;5058051;28;20048;-88
2023/01/12 09:24:00;;;;;;;21.52;3.83;;;10.30;99.90;;;;;;5056915;28;20120;-87
2023/01/12 09:26:30;;;;;;;20.73;4.07;;;10.60;99.90;;;;;;5041218;28;20155;-88
2023/01/12 09:29:01;;;;;;;19.00;3.70;;;10.30;99.90;;;;;;5046577;28;20528;-87
2023/01/12 09:31:28;;;;;;;16.42;3.20;;;10.30;99.90;;;;;;5045336;28;20040;-88
2023/01/12 09:33:54;;;;;;;18.98;3.80;;;10.20;99.90;;;;;;5058966;28;20063;-87
2023/01/12 09:36:26;;;;;;;16.95;3.92;;;10.30;99.90;;;;;;5040742;28;20971;-87
2023/01/12 09:38:52;;;;;;;18.83;3.20;;;10.30;99.90;;;;;;5044771;28;20116;-87
2023/01/12 09:47:40;;;;;;;18.45;3.53;;;10.40;99.90;;;;;;5072610;28;20064;-88
2023/01/12 09:50:17;;;;;;;14.90;3.47;;;10.40;99.90;;;;;;5044745;28;20055;-87
2023/01/12 09:52:51;;;;;;;19.02;3.50;;;10.40;99.90;;;;;;5062585;28;20135;-87
2023/01/12 09:55:21;;;;;;;17.67;3.80;;;10.40;99.90;;;;;;5053866;28;20429;-87
2023/01/12 09:57:58;;;;;;;16.23;3.28;;;10.40;99.90;;;;;;5060921;28;20040;-88
2023/01/12 10:00:26;;;;;;;25.05;3.75;;;10.50;99.90;;;;;;5060650;28;20032;-87
2023/01/12 10:03:22;;;;;;;16.88;3.10;;;10.50;99.90;;;;;;5029268;28;20044;-88
2023/01/12 10:05:49;;;;;;;19.95;3.40;;;10.50;99.90;;;;;;5050401;28;20056;-87
2023/01/12 10:08:38;;;;;;;23.08;3.70;;;10.60;99.90;;;;;;5043946;28;20047;-86
2023/01/12 10:11:37;;;;;;;16.02;3.40;;;10.70;99.90;;;;;;5060383;28;20086;-87
2023/01/12 10:14:26;;;;;;;17.83;3.70;;;10.60;99.90;;;;;;5071037;28;20041;-87
2023/01/12 10:17:13;;;;;;;17.00;3.20;;;10.60;99.90;;;;;;5041423;28;20512;-88
2023/01/12 10:19:42;;;;;;;14.30;3.00;;;10.60;99.90;;;;;;5044472;28;20029;-88
2023/01/12 10:22:35;;;;;;;20.08;3.45;;;10.60;99.90;;;;;;5073346;28;20068;-86
2023/01/12 10:25:34;;;;;;;14.10;2.78;;;10.60;99.90;;;;;;5057008;28;20037;-88
2023/01/12 10:28:13;;;;;;;15.45;3.08;;;10.70;99.90;;;;;;5007877;28;20049;-87
2023/01/12 10:30:40;;;;;;;14.85;3.00;;;10.70;99.90;;;;;;5060526;28;20062;-88
2023/01/12 10:33:23;;;;;;;16.00;2.92;;;10.70;99.90;;;;;;5043181;28;20119;-87
2023/01/12 10:36:18;;;;;;;18.17;3.58;;;10.70;99.90;;;;;;5057743;28;20047;-87
2023/01/12 10:39:02;;;;;;;13.88;2.90;;;10.70;99.90;;;;;;5036489;28;20127;-88
2023/01/12 10:41:37;;;;;;;11.90;2.47;;;10.80;99.90;;;;;;5064401;28;20060;-88
2023/01/12 10:44:12;;;;;;;13.45;2.65;;;10.80;99.90;;;;;;5026754;28;20041;-85
2023/01/12 10:46:37;;;;;;;15.43;2.92;;;10.80;99.90;;;;;;5061352;28;20482;-87
2023/01/12 10:49:18;;;;;;;12.65;2.70;;;10.80;99.90;;;;;;5043727;28;20036;-88
2023/01/12 10:51:51;;;;;;;15.55;2.70;;;10.80;99.90;;;;;;5053762;28;20506;-88
2023/01/12 10:54:32;;;;;;;16.10;3.45;;;10.90;99.90;;;;;;5071559;28;20045;-88
2023/01/12 10:57:08;;;;;;;13.63;3.30;;;10.90;99.90;;;;;;5058507;28;20040;-86
2023/01/12 10:59:37;;;;;;;15.63;3.28;;;10.80;99.90;;;;;;5052263;28;20044;-88
2023/01/12 11:02:07;;;;;;;13.55;3.13;;;10.80;99.90;;;;;;5041103;28;20439;-86
2023/01/12 11:05:22;;;;;;;19.50;3.58;;;10.80;99.90;;;;;;5051083;28;20043;-88
2023/01/12 11:07:48;;;;;;;13.40;2.55;;;10.80;99.90;;;;;;5050578;28;20401;-87
2023/01/12 11:10:24;;;;;;;13.35;3.00;;;10.80;99.90;;;;;;5056915;28;20531;-86
2023/01/12 11:13:02;;;;;;;16.60;3.17;;;10.30;99.90;;;;;;5045013;28;20041;-87
2023/01/12 11:15:29;;;;;;;16.90;3.65;;;10.80;99.90;;;;;;5042731;28;20051;-88
2023/01/12 11:18:31;;;;;;;14.23;2.65;;;10.70;99.90;;;;;;5048091;28;20385;-88
2023/01/12 11:21:09;;;;;;;13.52;2.88;;;10.70;99.90;;;;;;5040347;28;20059;-88
2023/01/12 11:23:51;;;;;;;13.32;2.45;;;10.80;99.90;;;;;;5075196;28;20037;-88
2023/01/12 11:26:20;;;;;;;14.07;2.85;;;10.80;99.90;;;;;;5061195;28;20036;-88
2023/01/12 11:29:01;;;;;;;18.23;3.20;;;10.80;99.90;;;;;;5059810;28;20044;-86
2023/01/12 11:31:38;;;;;;;14.35;2.70;;;10.90;99.90;;;;;;5064436;28;20040;-87
2023/01/12 11:34:15;;;;;;;12.52;3.03;;;10.10;99.90;;;;;;5063090;28;20060;-87
2023/01/12 11:36:46;;;;;;;17.70;2.80;;;11.00;99.90;;;;;;5059660;28;20072;-87
2023/01/12 11:39:15;;;;;;;14.68;2.88;;;11.00;99.90;;;;;;5062335;28;20056;-86
2023/01/12 11:44:39;;;;;;;14.00;3.28;;;11.10;99.90;;;;;;5062038;28;20048;-87
2023/01/12 11:47:12;;;;;;;12.57;2.65;;;11.10;99.90;;;;;;5078965;28;20370;-86
2023/01/12 11:49:41;;;;;;;13.40;3.03;;;11.20;99.90;;;;;;5063035;28;20036;-87
2023/01/12 11:52:09;;;;;;;14.30;3.28;;;11.20;99.90;;;;;;5064313;28;20521;-87
2023/01/12 11:54:37;;;;;;;14.82;2.72;;;11.20;99.90;;;;;;5064359;28;20036;-87
2023/01/12 11:57:20;;;;;;;15.00;3.20;;;11.20;99.90;;;;;;5064788;28;20064;-87
2023/01/12 12:00:01;;;;;;;13.50;3.10;;;11.20;99.90;;;;;;5055959;28;20069;-87
2023/01/12 12:02:31;;;;;;;14.23;2.83;;;11.30;99.90;;;;;;5072645;28;20028;-87
2023/01/12 12:04:57;;;;;;;14.77;3.03;;;11.30;99.90;;;;;;5044071;28;20043;-86
2023/01/12 12:07:47;;;;;;;14.65;2.47;;;11.40;99.90;;;;;;5036692;28;20315;-88
2023/01/12 12:10:26;;;;;;;15.95;3.42;;;11.40;99.90;;;;;;5034095;28;20049;-87
2023/01/12 12:13:01;;;;;;;13.40;2.70;;;11.50;99.90;;;;;;5060836;28;20486;-87
2023/01/12 12:15:41;;;;;;;14.48;3.42;;;11.60;99.90;;;;;;5043217;28;20771;-87
2023/01/12 12:18:45;;;;;;;12.90;2.60;;;11.60;99.90;;;;;;5063161;28;20106;-85
2023/01/12 12:21:37;;;;;;;16.27;2.65;;;11.60;99.90;;;;;;5064272;28;20038;-87
2023/01/12 12:24:33;;;;;;;11.77;2.38;;;11.60;99.90;;;;;;5045400;28;20052;-86
2023/01/12 12:27:19;;;;;;;16.30;3.30;;;11.60;99.90;;;;;;5055558;28;20074;-86
2023/01/12 12:29:54;;;;;;;14.15;2.72;;;11.50;99.90;;;;;;5070695;28;20086;-87
2023/01/12 12:32:43;;;;;;;14.85;2.88;;;11.50;99.90;;;;;;5075537;28;20047;-87
2023/01/12 12:35:27;;;;;;;15.68;2.85;;;11.50;99.90;;;;;;5050046;28;20130;-86
2023/01/12 12:38:09;;;;;;;14.15;2.53;;;11.50;99.90;;;;;;5075277;28;20396;-87
2023/01/12 12:46:42;;;;;;;13.20;2.80;;;11.50;99.90;;;;;;5057820;28;20040;-87
2023/01/12 12:49:18;;;;;;;13.63;2.90;;;11.50;99.90;;;;;;5039809;28;20045;-86
2023/01/12 12:51:45;;;;;;;10.40;2.22;;;11.50;99.90;;;;;;5040649;28;20044;-86
2023/01/12 12:54:19;;;;;;;15.95;3.00;;;11.40;99.90;;;;;;5042186;28;20052;-86
2023/01/12 12:56:46;;;;;;;14.23;3.22;;;11.30;99.90;;;;;;5063568;28;20112;-86
2023/01/12 12:59:30;;;;;;;14.52;3.15;;;11.30;99.90;;;;;;5053346;28;20242;-86
2023/01/12 13:01:58;;;;;;;15.18;3.40;;;11.20;99.90;;;;;;5044499;28;20036;-87
2023/01/12 13:04:42;;;;;;;15.15;2.83;;;11.20;99.90;;;;;;5060293;28;20040;-87
2023/01/12 13:07:15;;;;;;;13.70;2.80;;;11.20;99.90;;;;;;5067991;28;20045;-87
2023/01/12 13:09:41;;;;;;;15.15;2.75;;;11.20;99.90;;;;;;5062922;28;20379;-87
2023/01/12 13:12:15;;;;;;;18.20;3.10;;;11.20;99.90;;;;;;5054636;28;20499;-86
2023/01/12 13:14:42;;;;;;;15.32;3.05;;;11.10;99.90;;;;;;5059102;28;20048;-86
2023/01/12 13:17:20;;;;;;;14.80;2.83;;;11.10;99.90;;;;;;5041660;28;20091;-87
2023/01/12 13:19:48;;;;;;;14.55;2.85;;;11.10;99.90;;;;;;5038800;28;20040;-87
2023/01/12 13:22:40;;;;;;;14.23;2.80;;;11.10;99.90;;;;;;5058586;28;20490;-87
2023/01/12 13:25:09;;;;;;;16.88;2.92;;;11.10;99.90;;;;;;5052602;28;20440;-87
2023/01/12 13:27:55;;;;;;;14.45;3.35;;;11.10;99.90;;;;;;5060361;28;20068;-87
2023/01/12 13:30:37;;;;;;;16.00;3.28;;;11.10;99.90;;;;;;5056546;28;20498;-87
2023/01/12 13:33:26;;;;;;;15.10;3.03;;;11.10;99.90;;;;;;5042712;28;20032;-87
2023/01/12 13:35:51;;;;;;;17.88;3.47;;;11.10;99.90;;;;;;5043514;28;20121;-87
2023/01/12 13:38:32;;;;;;;16.80;3.10;;;11.10;99.90;;;;;;5057277;28;20112;-88
2023/01/12 13:41:13;;;;;;;15.07;2.78;;;11.10;99.90;;;;;;5056599;28;20072;-87
2023/01/12 13:43:46;;;;;;;14.88;3.20;;;11.10;99.90;;;;;;5061159;28;20103;-87
2023/01/12 13:46:16;;;;;;;;;;;11.00;99.90;;;;;;5061787;28;20047;-87
2023/01/12 13:48:46;;;;;;;19.83;3.65;;;11.00;99.90;;;;;;5079648;28;19975;-87